Strona główna
METAR-TAF:

METAR-TAF

Lotnisko :

Marshfield, Massachusetts, Stany Zjednoczone

Szerokość geograficzna: 42-05-54N, Długość geograficzna: 070-40-20W, wysokość: 3 m

Aktualna obserwacja pogody

Raport powstał 19 minut temu, godzina 20:55 UTC
Wiatr 5 kt z kierunków zmiennych
Temperatura 26°C
Wilgotność 54%
Ciśnienie 1008 hPa
Widzialność: 16.1 km
Mało chmury na wysokości 5500 ft

METAR: KGHG 302055Z AUTO VRB05KT 10SM FEW055 26/16 A2978 RMK AO2

czas: 17:14 (21:14 UTC)


TAF: brakujący

Obserwacja i prognoza pogody dla ponad 4000 lotnisk (raport METAR i TAF).

Dostępne stacje oznaczono żółtymi i czerwonymi punktami na mapie.

Najedź kursorem aby zobaczyć nazwę stacji.

Kliknij aby zobaczyć obserwacje i prognozy pogody.

Aby zmienić mapę: kliknij na zielony przycisk z czarnym krzyżykiem, aby powiększyć; na zielony przycisk z myślnikiem, aby pomniejszyć; na zielone strzałki, aby przejść do map sąsiednich.


METAR-TAF: